createdAt,value
2023-05-09T00:02:19.883Z,23.60
2023-05-09T00:04:46.798Z,23.20
2023-05-09T00:07:13.619Z,23.30
2023-05-09T00:09:40.391Z,23.30
2023-05-09T00:12:07.934Z,23.20
2023-05-09T00:14:34.744Z,23.20
2023-05-09T00:17:01.430Z,23.20
2023-05-09T00:19:28.117Z,23.20
2023-05-09T00:21:54.779Z,23.20
2023-05-09T00:24:21.428Z,23.20
2023-05-09T00:26:48.049Z,23.00
2023-05-09T00:29:14.735Z,23.10
2023-05-09T00:31:41.373Z,23.10
2023-05-09T00:34:08.101Z,23.20
2023-05-09T00:36:34.728Z,23.10
2023-05-09T00:39:01.511Z,23.20
2023-05-09T00:41:28.175Z,23.10
2023-05-09T00:43:54.835Z,23.00
2023-05-09T00:46:21.825Z,23.00
2023-05-09T00:48:48.639Z,23.10
2023-05-09T00:51:15.818Z,23.10
2023-05-09T00:53:42.580Z,23.30
2023-05-09T00:56:10.975Z,23.30
2023-05-09T00:58:38.333Z,23.30
2023-05-09T01:01:05.111Z,23.30
2023-05-09T01:03:32.267Z,23.30
2023-05-09T01:06:22.249Z,23.40
2023-05-09T01:09:00.880Z,23.40
2023-05-09T01:11:39.238Z,23.30
2023-05-09T01:14:31.068Z,23.40
2023-05-09T01:17:03.003Z,23.40
2023-05-09T01:19:32.620Z,23.50
2023-05-09T01:22:02.147Z,23.50
2023-05-09T01:24:56.280Z,23.30
2023-05-09T01:27:32.263Z,23.30
2023-05-09T01:30:00.444Z,23.30
2023-05-09T01:32:29.420Z,23.50
2023-05-09T01:34:59.299Z,23.30
2023-05-09T01:37:35.468Z,23.30
2023-05-09T01:40:10.396Z,23.30
2023-05-09T01:42:44.212Z,23.30
2023-05-09T01:45:12.366Z,23.30
2023-05-09T01:47:40.773Z,23.30
2023-05-09T01:50:10.729Z,23.20
2023-05-09T01:52:39.051Z,23.30
2023-05-09T01:55:07.375Z,23.30
2023-05-09T01:57:36.262Z,23.20
2023-05-09T02:00:04.756Z,23.50
2023-05-09T02:02:32.516Z,23.20
2023-05-09T02:05:00.735Z,23.20
2023-05-09T02:07:29.736Z,23.20
2023-05-09T02:09:58.366Z,23.20
2023-05-09T02:12:25.412Z,23.20
2023-05-09T02:14:52.361Z,23.20
2023-05-09T02:17:19.240Z,23.20
2023-05-09T02:19:45.968Z,23.20
2023-05-09T02:22:13.822Z,23.20
2023-05-09T02:24:42.456Z,23.20
2023-05-09T02:27:11.321Z,23.20
2023-05-09T02:29:44.350Z,23.20
2023-05-09T02:32:16.561Z,23.20
2023-05-09T02:34:45.275Z,23.20
2023-05-09T02:37:13.216Z,23.30
2023-05-09T02:39:40.495Z,23.20
2023-05-09T02:42:10.627Z,23.20
2023-05-09T02:44:38.778Z,23.10
2023-05-09T02:47:07.149Z,23.10
2023-05-09T02:49:34.517Z,23.20
2023-05-09T02:52:01.514Z,23.30
2023-05-09T02:54:28.539Z,23.30
2023-05-09T02:56:55.370Z,23.30
2023-05-09T02:59:22.108Z,23.20
2023-05-09T03:01:48.851Z,23.30
2023-05-09T03:04:16.522Z,23.20
2023-05-09T03:06:43.327Z,23.30
2023-05-09T03:09:10.156Z,23.30
2023-05-09T03:11:36.978Z,23.20
2023-05-09T03:14:08.369Z,23.20
2023-05-09T03:16:35.288Z,23.20
2023-05-09T03:19:01.957Z,23.30
2023-05-09T03:21:28.592Z,23.50
2023-05-09T03:23:56.094Z,23.30
2023-05-09T03:26:22.772Z,23.30
2023-05-09T03:28:49.396Z,23.20
2023-05-09T03:31:16.172Z,23.30
2023-05-09T03:33:42.844Z,23.20
2023-05-09T03:36:09.654Z,23.20
2023-05-09T03:38:36.330Z,23.30
2023-05-09T03:41:03.906Z,23.30
2023-05-09T03:43:30.642Z,23.20
2023-05-09T03:45:57.341Z,23.20
2023-05-09T03:48:24.016Z,23.20
2023-05-09T03:50:51.013Z,23.30
2023-05-09T03:53:17.698Z,23.20
2023-05-09T03:55:44.331Z,23.30
2023-05-09T03:58:11.945Z,23.20
2023-05-09T04:00:39.182Z,23.30
2023-05-09T04:03:05.940Z,23.20
2023-05-09T04:05:33.762Z,23.20
2023-05-09T04:08:00.564Z,23.30
2023-05-09T04:10:27.273Z,23.20
2023-05-09T04:12:54.019Z,23.20
2023-05-09T04:15:20.785Z,23.30
2023-05-09T04:17:47.477Z,23.30
2023-05-09T04:20:15.068Z,23.30
2023-05-09T04:22:41.741Z,23.20
2023-05-09T04:25:12.377Z,23.30
2023-05-09T04:27:39.215Z,23.20
2023-05-09T04:30:06.800Z,23.30
2023-05-09T04:32:33.521Z,23.20
2023-05-09T04:35:00.267Z,23.20
2023-05-09T04:37:26.998Z,23.30
2023-05-09T04:39:53.658Z,23.30
2023-05-09T04:42:20.976Z,23.20
2023-05-09T04:44:49.299Z,23.20
2023-05-09T04:47:16.077Z,23.30
2023-05-09T04:49:42.727Z,23.20
2023-05-09T04:52:09.374Z,23.30
2023-05-09T04:54:36.013Z,23.20
2023-05-09T04:57:16.542Z,23.30
2023-05-09T04:59:44.269Z,23.20
2023-05-09T05:02:10.936Z,23.30
2023-05-09T05:04:37.604Z,23.30
2023-05-09T05:07:05.140Z,23.20
2023-05-09T05:09:31.782Z,23.30
2023-05-09T05:12:02.329Z,23.30
2023-05-09T05:14:30.420Z,23.30
2023-05-09T05:16:57.096Z,23.30
2023-05-09T05:19:23.759Z,23.30
2023-05-09T05:21:50.479Z,23.30
2023-05-09T05:24:17.132Z,23.20
2023-05-09T05:26:43.798Z,23.30
2023-05-09T05:29:10.567Z,23.30
2023-05-09T05:31:37.320Z,23.30
2023-05-09T05:34:04.066Z,23.30
2023-05-09T05:36:32.041Z,23.30
2023-05-09T05:38:58.798Z,23.20
2023-05-09T05:41:26.205Z,23.30
2023-05-09T05:43:54.296Z,23.20
2023-05-09T05:46:21.419Z,23.30
2023-05-09T05:48:48.255Z,23.60
2023-05-09T05:51:14.974Z,23.20
2023-05-09T05:53:42.106Z,23.50
2023-05-09T05:56:08.750Z,23.20
2023-05-09T05:58:35.479Z,23.30
2023-05-09T06:01:02.459Z,23.20
2023-05-09T06:03:29.270Z,23.30
2023-05-09T06:05:56.579Z,23.30
2023-05-09T06:08:23.453Z,23.20
2023-05-09T06:10:50.233Z,23.30
2023-05-09T06:13:17.010Z,23.30
2023-05-09T06:15:43.807Z,23.30
2023-05-09T06:18:10.826Z,23.20
2023-05-09T06:20:37.549Z,23.20
2023-05-09T06:23:04.220Z,23.10
2023-05-09T06:25:30.872Z,23.20
2023-05-09T06:27:57.626Z,23.20
2023-05-09T06:30:26.787Z,23.30
2023-05-09T06:32:54.691Z,23.20
2023-05-09T06:35:21.711Z,23.20
2023-05-09T06:37:49.130Z,23.20
2023-05-09T06:40:16.845Z,23.20
2023-05-09T06:42:44.249Z,23.30
2023-05-09T06:45:11.915Z,23.30
2023-05-09T06:47:38.752Z,23.20
2023-05-09T06:50:05.969Z,23.30
2023-05-09T06:52:32.616Z,23.20
2023-05-09T06:54:59.245Z,23.20
2023-05-09T06:57:25.997Z,23.20
2023-05-09T06:59:52.664Z,23.20
2023-05-09T07:02:19.458Z,23.20
2023-05-09T07:04:46.132Z,23.20
2023-05-09T07:07:12.814Z,23.20
2023-05-09T07:09:39.465Z,23.20
2023-05-09T07:12:06.309Z,23.20
2023-05-09T07:14:33.009Z,23.10
2023-05-09T07:17:13.687Z,23.20
2023-05-09T07:19:45.408Z,23.20
2023-05-09T07:22:13.391Z,23.20
2023-05-09T07:24:40.249Z,23.10
2023-05-09T07:27:06.978Z,23.20
2023-05-09T07:29:33.616Z,23.20
2023-05-09T07:32:00.274Z,23.10
2023-05-09T07:34:28.265Z,23.20
2023-05-09T07:36:54.975Z,23.20
2023-05-09T07:39:21.594Z,23.20
2023-05-09T07:41:48.845Z,23.20
2023-05-09T07:44:15.865Z,23.20
2023-05-09T07:46:42.690Z,23.40
2023-05-09T07:49:09.380Z,23.10
2023-05-09T07:51:36.073Z,23.10
2023-05-09T07:54:02.737Z,23.10
2023-05-09T07:56:29.459Z,23.20
2023-05-09T07:58:56.116Z,23.20
2023-05-09T08:01:22.737Z,23.20
2023-05-09T08:03:49.516Z,23.50
2023-05-09T08:06:16.313Z,23.30
2023-05-09T08:08:42.932Z,23.20
2023-05-09T08:11:09.645Z,23.20
2023-05-09T08:13:36.402Z,23.20
2023-05-09T08:16:03.148Z,23.20
2023-05-09T08:18:29.959Z,23.20
2023-05-09T08:20:58.473Z,23.10
2023-05-09T08:23:25.994Z,23.20
2023-05-09T08:25:54.241Z,23.20
2023-05-09T08:28:24.045Z,23.20
2023-05-09T08:30:51.578Z,23.20
2023-05-09T08:33:18.357Z,23.10
2023-05-09T08:35:45.308Z,23.20
2023-05-09T08:38:11.939Z,23.20
2023-05-09T08:40:39.011Z,23.20
2023-05-09T08:43:07.105Z,23.20
2023-05-09T08:45:39.993Z,23.20
2023-05-09T08:48:07.719Z,23.20
2023-05-09T08:50:35.476Z,23.20
2023-05-09T08:53:02.456Z,23.20
2023-05-09T08:55:29.495Z,23.20
2023-05-09T08:57:57.748Z,23.20
2023-05-09T09:00:25.924Z,23.20
2023-05-09T09:02:54.136Z,23.20
2023-05-09T09:05:40.223Z,23.20
2023-05-09T09:08:08.556Z,23.30
2023-05-09T09:10:35.644Z,23.40
2023-05-09T09:13:04.960Z,23.30
2023-05-09T09:15:36.262Z,23.30
2023-05-09T09:18:10.193Z,23.20
2023-05-09T09:20:48.475Z,23.20
2023-05-09T09:23:19.665Z,23.20
2023-05-09T09:25:47.355Z,23.20
2023-05-09T09:28:14.623Z,23.20
2023-05-09T09:30:50.532Z,23.20
2023-05-09T09:33:25.014Z,23.10
2023-05-09T09:35:53.155Z,23.00
2023-05-09T09:38:20.867Z,23.00
2023-05-09T09:40:57.728Z,23.10
2023-05-09T09:43:31.560Z,23.20
2023-05-09T09:46:02.900Z,23.20
2023-05-09T09:48:34.621Z,23.30
2023-05-09T09:51:11.441Z,23.30
2023-05-09T09:53:42.194Z,23.30
2023-05-09T09:56:09.693Z,23.30
2023-05-09T09:58:36.787Z,23.30
2023-05-09T10:01:10.579Z,23.30
2023-05-09T10:03:42.065Z,23.20
2023-05-09T10:06:12.732Z,23.30
2023-05-09T10:08:40.707Z,23.30
2023-05-09T10:11:07.581Z,23.30
2023-05-09T10:13:36.363Z,23.30
2023-05-09T10:16:04.133Z,23.30
2023-05-09T10:18:31.602Z,23.30
2023-05-09T10:21:04.078Z,23.30
2023-05-09T10:23:32.659Z,23.40
2023-05-09T10:26:16.526Z,23.40
2023-05-09T10:28:46.474Z,23.50
2023-05-09T10:31:20.884Z,23.50
2023-05-09T10:33:49.335Z,23.50
2023-05-09T10:36:18.345Z,23.60
2023-05-09T10:38:46.575Z,23.60
2023-05-09T10:41:14.525Z,23.60
2023-05-09T10:43:42.597Z,23.60
2023-05-09T10:46:09.923Z,23.60
2023-05-09T10:48:37.278Z,23.70
2023-05-09T10:51:05.167Z,23.60
2023-05-09T10:53:46.535Z,23.60
2023-05-09T10:56:35.600Z,23.60
2023-05-09T10:59:02.669Z,23.60
2023-05-09T11:01:35.388Z,23.70
2023-05-09T11:04:09.671Z,23.80
2023-05-09T11:06:47.514Z,23.70
2023-05-09T11:09:34.440Z,23.70
2023-05-09T11:12:21.072Z,23.60
2023-05-09T11:14:52.624Z,23.60
2023-05-09T11:17:22.591Z,23.60
2023-05-09T11:19:49.390Z,23.60
2023-05-09T11:22:21.407Z,23.70
2023-05-09T11:24:54.064Z,23.70
2023-05-09T11:27:25.728Z,23.70
2023-05-09T11:29:56.550Z,23.90
2023-05-09T11:32:31.111Z,23.80
2023-05-09T11:35:07.411Z,23.80
2023-05-09T11:37:34.111Z,23.80
2023-05-09T11:40:04.639Z,23.80
2023-05-09T11:42:31.902Z,23.80
2023-05-09T11:44:59.141Z,23.90
2023-05-09T11:47:29.121Z,23.90
2023-05-09T11:49:55.914Z,23.90
2023-05-09T11:52:22.603Z,23.90
2023-05-09T11:54:51.894Z,23.90
2023-05-09T11:57:18.578Z,23.90
2023-05-09T11:59:45.532Z,23.80
2023-05-09T12:02:12.823Z,23.80
2023-05-09T12:04:39.983Z,23.90
2023-05-09T12:07:06.924Z,23.90
2023-05-09T12:09:37.757Z,23.90
2023-05-09T12:12:11.763Z,23.90
2023-05-09T12:14:39.676Z,23.90
2023-05-09T12:17:07.990Z,23.90
2023-05-09T12:19:35.122Z,23.90
2023-05-09T12:22:03.855Z,23.80
2023-05-09T12:24:31.319Z,23.80
2023-05-09T12:26:59.557Z,23.70
2023-05-09T12:29:27.097Z,23.70
2023-05-09T12:31:54.502Z,23.80
2023-05-09T12:34:21.617Z,23.70
2023-05-09T12:36:50.779Z,23.80
2023-05-09T12:39:19.413Z,23.80
2023-05-09T12:41:53.890Z,23.80
2023-05-09T12:44:29.536Z,23.80
2023-05-09T12:47:04.492Z,23.80
2023-05-09T12:49:32.391Z,23.80
2023-05-09T12:52:02.979Z,23.90
2023-05-09T12:54:31.388Z,23.80
2023-05-09T12:56:58.741Z,23.90
2023-05-09T12:59:27.046Z,23.90
2023-05-09T13:01:58.073Z,23.90
2023-05-09T13:04:26.620Z,23.90
2023-05-09T13:06:55.785Z,23.90
2023-05-09T13:09:23.948Z,23.90
2023-05-09T13:11:52.031Z,23.90
2023-05-09T13:14:21.553Z,23.90
2023-05-09T13:16:48.406Z,23.80
2023-05-09T13:19:15.239Z,23.90
2023-05-09T13:21:41.901Z,23.80
2023-05-09T13:24:08.581Z,23.90
2023-05-09T13:26:36.509Z,23.90
2023-05-09T13:29:03.202Z,23.90
2023-05-09T13:31:30.772Z,23.90
2023-05-09T13:33:57.426Z,23.90
2023-05-09T13:36:24.128Z,23.90
2023-05-09T13:38:50.978Z,23.90
2023-05-09T13:41:21.699Z,23.90
2023-05-09T13:43:48.476Z,23.90
2023-05-09T13:46:15.597Z,23.90
2023-05-09T13:48:42.380Z,23.90
2023-05-09T13:51:09.867Z,23.90
2023-05-09T13:53:38.654Z,23.90
2023-05-09T13:56:09.091Z,23.90
2023-05-09T13:58:36.252Z,23.90
2023-05-09T14:01:03.178Z,23.90
2023-05-09T14:03:30.000Z,24.00
2023-05-09T14:05:56.959Z,24.00
2023-05-09T14:08:23.842Z,24.10
2023-05-09T14:10:51.091Z,24.00
2023-05-09T14:13:18.099Z,24.00
2023-05-09T14:15:44.866Z,24.00
2023-05-09T14:18:15.933Z,24.10
2023-05-09T14:20:44.485Z,24.10
2023-05-09T14:23:11.157Z,24.10
2023-05-09T14:25:37.884Z,24.10
2023-05-09T14:28:06.827Z,24.10
2023-05-09T14:30:34.185Z,24.10
2023-05-09T14:33:00.832Z,24.00
2023-05-09T14:35:27.645Z,24.00
2023-05-09T14:37:54.328Z,24.10
2023-05-09T14:40:21.640Z,23.90
2023-05-09T14:42:48.520Z,24.00
2023-05-09T14:45:15.337Z,23.90
2023-05-09T14:47:42.051Z,24.00
2023-05-09T14:50:11.378Z,24.00
2023-05-09T14:52:38.024Z,24.00
2023-05-09T14:55:06.174Z,24.00
2023-05-09T14:57:33.207Z,24.10
2023-05-09T15:00:12.677Z,24.10
2023-05-09T15:02:47.123Z,24.00
2023-05-09T15:05:13.945Z,24.10
2023-05-09T15:07:40.635Z,24.10
2023-05-09T15:10:07.757Z,23.90
2023-05-09T15:12:34.455Z,24.00
2023-05-09T15:15:23.329Z,24.10
2023-05-09T15:17:50.628Z,24.00
2023-05-09T15:20:18.260Z,24.00
2023-05-09T15:22:49.887Z,24.00
2023-05-09T15:25:16.865Z,23.90
2023-05-09T15:27:43.539Z,24.00
2023-05-09T15:30:10.889Z,24.10
2023-05-09T15:32:40.705Z,23.90
2023-05-09T15:35:08.333Z,24.00
2023-05-09T15:37:35.863Z,23.90
2023-05-09T15:40:03.088Z,23.90
2023-05-09T15:42:29.762Z,24.00
2023-05-09T15:44:56.856Z,23.90
2023-05-09T15:47:23.542Z,23.90
2023-05-09T15:49:50.205Z,23.90
2023-05-09T15:52:17.003Z,23.90
2023-05-09T15:54:45.186Z,23.90
2023-05-09T15:57:13.291Z,23.90
2023-05-09T15:59:40.281Z,24.10
2023-05-09T16:02:07.052Z,23.90
2023-05-09T16:04:34.225Z,23.90
2023-05-09T16:07:02.353Z,23.90
2023-05-09T16:09:29.186Z,23.90
2023-05-09T16:11:56.290Z,24.30
2023-05-09T16:14:23.367Z,23.90
2023-05-09T16:16:51.634Z,23.60
2023-05-09T16:19:18.279Z,23.90
2023-05-09T16:21:47.830Z,24.00
2023-05-09T16:24:14.515Z,23.90
2023-05-09T16:26:41.208Z,23.90
2023-05-09T16:29:07.949Z,23.90
2023-05-09T16:31:35.656Z,23.80
2023-05-09T16:34:02.979Z,23.90
2023-05-09T16:36:30.319Z,23.90
2023-05-09T16:38:57.018Z,23.90
2023-05-09T16:41:23.698Z,23.90
2023-05-09T16:43:50.358Z,24.00
2023-05-09T16:46:17.089Z,23.80
2023-05-09T16:48:43.816Z,23.60
2023-05-09T16:51:10.454Z,23.80
2023-05-09T16:53:37.094Z,23.80
2023-05-09T16:56:05.033Z,23.80
2023-05-09T16:58:31.682Z,23.70
2023-05-09T17:01:00.275Z,24.00
2023-05-09T17:03:26.965Z,23.80
2023-05-09T17:05:53.727Z,23.80
2023-05-09T17:08:20.402Z,23.70
2023-05-09T17:10:47.058Z,23.70
2023-05-09T17:13:13.699Z,23.60
2023-05-09T17:15:40.410Z,23.60
2023-05-09T17:18:07.146Z,23.70
2023-05-09T17:20:33.857Z,23.70
2023-05-09T17:23:00.535Z,23.70
2023-05-09T17:25:27.356Z,23.70
2023-05-09T17:27:53.971Z,23.70
2023-05-09T17:30:23.037Z,23.70
2023-05-09T17:32:50.147Z,23.80
2023-05-09T17:35:19.323Z,23.70
2023-05-09T17:37:46.223Z,23.60
2023-05-09T17:40:13.357Z,23.60
2023-05-09T17:42:41.188Z,23.50
2023-05-09T17:45:09.832Z,23.60
2023-05-09T17:47:37.393Z,23.40
2023-05-09T17:50:04.672Z,23.40
2023-05-09T17:52:31.595Z,23.30
2023-05-09T17:54:58.322Z,23.30
2023-05-09T17:57:25.050Z,23.30
2023-05-09T17:59:51.851Z,23.30
2023-05-09T18:02:23.759Z,23.30
2023-05-09T18:04:51.221Z,23.40
2023-05-09T18:07:18.271Z,23.30
2023-05-09T18:09:45.278Z,23.30
2023-05-09T18:12:12.255Z,23.20
2023-05-09T18:14:39.414Z,23.20
2023-05-09T18:17:06.051Z,23.20
2023-05-09T18:19:33.725Z,23.10
2023-05-09T18:22:00.471Z,23.20
2023-05-09T18:24:27.462Z,23.10
2023-05-09T18:26:54.097Z,23.10
2023-05-09T18:29:20.758Z,23.10
2023-05-09T18:31:47.432Z,23.10
2023-05-09T18:34:14.174Z,23.10
2023-05-09T18:36:40.903Z,23.00
2023-05-09T18:39:08.807Z,23.00
2023-05-09T18:41:35.562Z,23.10
2023-05-09T18:44:02.300Z,23.20
2023-05-09T18:46:31.447Z,23.20
2023-05-09T18:48:58.187Z,23.30
2023-05-09T18:51:25.523Z,23.30
2023-05-09T18:53:52.342Z,23.40
2023-05-09T18:56:21.261Z,23.40
2023-05-09T18:58:50.049Z,23.30
2023-05-09T19:01:17.444Z,23.30
2023-05-09T19:03:46.092Z,23.20
2023-05-09T19:06:13.964Z,23.20
2023-05-09T19:08:44.037Z,23.00
2023-05-09T19:11:11.609Z,23.10
2023-05-09T19:13:40.085Z,23.10
2023-05-09T19:16:07.626Z,23.00
2023-05-09T19:18:34.736Z,23.00
2023-05-09T19:21:01.611Z,23.00
2023-05-09T19:23:28.309Z,23.00
2023-05-09T19:25:55.322Z,23.00
2023-05-09T19:28:22.939Z,23.00
2023-05-09T19:30:50.316Z,22.90
2023-05-09T19:33:17.743Z,22.90
2023-05-09T19:35:45.215Z,22.90
2023-05-09T19:38:12.069Z,22.80
2023-05-09T19:40:39.656Z,22.80
2023-05-09T19:43:06.553Z,22.90
2023-05-09T19:45:33.296Z,22.80
2023-05-09T19:48:00.588Z,22.80
2023-05-09T19:50:27.582Z,22.80
2023-05-09T19:52:54.237Z,22.80
2023-05-09T19:55:20.935Z,22.70
2023-05-09T19:57:47.586Z,22.80
2023-05-09T20:00:14.678Z,22.80
2023-05-09T20:02:41.675Z,22.80
2023-05-09T20:05:08.892Z,22.80
2023-05-09T20:07:35.542Z,22.80
2023-05-09T20:10:02.362Z,22.80
2023-05-09T20:12:30.230Z,22.80
2023-05-09T20:14:57.367Z,22.80
2023-05-09T20:17:24.142Z,22.80
2023-05-09T20:19:51.242Z,23.00
2023-05-09T20:22:17.982Z,22.80
2023-05-09T20:24:44.674Z,22.70
2023-05-09T20:27:11.371Z,22.70
2023-05-09T20:29:38.028Z,22.70
2023-05-09T20:32:04.850Z,22.70
2023-05-09T20:34:31.583Z,22.70
2023-05-09T20:36:58.381Z,22.80
2023-05-09T20:39:25.125Z,22.70
2023-05-09T20:41:52.434Z,22.70
2023-05-09T20:44:19.213Z,22.70
2023-05-09T20:46:46.084Z,22.70
2023-05-09T20:49:13.041Z,22.70
2023-05-09T20:51:39.997Z,22.70
2023-05-09T20:54:06.838Z,22.80
2023-05-09T20:56:35.464Z,22.80
2023-05-09T20:59:04.086Z,22.70
2023-05-09T21:01:32.415Z,22.70
2023-05-09T21:03:59.320Z,22.50
2023-05-09T21:06:26.038Z,22.70
2023-05-09T21:08:52.722Z,22.60
2023-05-09T21:11:19.491Z,22.60
2023-05-09T21:13:46.180Z,22.60
2023-05-09T21:16:12.873Z,22.60
2023-05-09T21:18:39.522Z,22.60
2023-05-09T21:21:10.095Z,22.70
2023-05-09T21:23:36.796Z,22.60
2023-05-09T21:26:03.452Z,22.50
2023-05-09T21:28:30.366Z,22.50
2023-05-09T21:30:57.228Z,22.80
2023-05-09T21:33:23.920Z,22.80
2023-05-09T21:35:50.558Z,22.90
2023-05-09T21:38:17.204Z,22.90
2023-05-09T21:40:43.885Z,23.00
2023-05-09T21:43:10.858Z,23.00
2023-05-09T21:45:37.591Z,23.00
2023-05-09T21:48:04.516Z,23.00
2023-05-09T21:50:31.219Z,23.00
2023-05-09T21:52:57.873Z,23.10
2023-05-09T21:55:24.626Z,23.10
2023-05-09T21:57:51.251Z,23.10
2023-05-09T22:00:18.431Z,23.10
2023-05-09T22:02:45.312Z,23.00
2023-05-09T22:05:12.549Z,23.00
2023-05-09T22:07:39.283Z,23.00
2023-05-09T22:10:06.994Z,23.10
2023-05-09T22:12:33.750Z,23.10
2023-05-09T22:15:00.448Z,23.20
2023-05-09T22:17:27.107Z,23.20
2023-05-09T22:19:53.899Z,23.20
2023-05-09T22:22:21.286Z,23.20
2023-05-09T22:24:49.552Z,23.20
2023-05-09T22:27:16.328Z,23.20
2023-05-09T22:29:42.992Z,23.10
2023-05-09T22:32:10.031Z,23.20
2023-05-09T22:34:37.169Z,23.20
2023-05-09T22:37:04.050Z,23.30
2023-05-09T22:39:30.935Z,23.30
2023-05-09T22:41:57.722Z,23.30
2023-05-09T22:44:24.412Z,23.30
2023-05-09T22:46:51.159Z,23.30
2023-05-09T22:49:17.775Z,23.40
2023-05-09T22:51:44.471Z,23.40
2023-05-09T22:54:11.479Z,23.30
2023-05-09T22:56:38.132Z,23.30
2023-05-09T22:59:04.879Z,23.40
2023-05-09T23:01:50.594Z,23.40
2023-05-09T23:04:17.298Z,23.30
2023-05-09T23:06:44.220Z,23.30
2023-05-09T23:09:10.905Z,23.30
2023-05-09T23:11:37.829Z,23.30
2023-05-09T23:14:04.594Z,23.30
2023-05-09T23:16:31.247Z,23.30
2023-05-09T23:18:57.905Z,23.30
2023-05-09T23:21:24.591Z,23.30
2023-05-09T23:23:51.214Z,23.40
2023-05-09T23:26:18.090Z,23.30
2023-05-09T23:28:44.736Z,23.20
2023-05-09T23:31:11.415Z,23.30
2023-05-09T23:33:38.265Z,23.30
2023-05-09T23:36:05.272Z,23.30
2023-05-09T23:38:32.046Z,23.30
2023-05-09T23:41:00.073Z,23.30
2023-05-09T23:43:26.961Z,23.30
2023-05-09T23:45:53.858Z,23.30
2023-05-09T23:48:20.648Z,23.40
2023-05-09T23:50:47.260Z,23.30
2023-05-09T23:53:14.219Z,23.50
2023-05-09T23:55:40.859Z,23.10
2023-05-09T23:58:09.698Z,23.30
